createdAt,value
2023-08-31T00:02:21.803Z,5.47
2023-08-31T00:04:55.594Z,5.30
2023-08-31T00:07:28.604Z,5.28
2023-08-31T00:10:07.828Z,5.63
2023-08-31T00:12:40.912Z,5.57
2023-08-31T00:15:14.477Z,5.07
2023-08-31T00:17:47.735Z,5.00
2023-08-31T00:20:20.669Z,4.90
2023-08-31T00:22:53.872Z,4.50
2023-08-31T00:25:29.405Z,5.10
2023-08-31T00:28:06.104Z,4.75
2023-08-31T00:30:39.202Z,4.70
2023-08-31T00:35:47.154Z,4.77
2023-08-31T00:38:20.738Z,4.30
2023-08-31T00:40:55.357Z,4.50
2023-08-31T00:43:29.479Z,4.68
2023-08-31T00:46:02.729Z,4.20
2023-08-31T00:48:36.352Z,4.22
2023-08-31T00:51:11.535Z,4.25
2023-08-31T00:53:44.677Z,4.10
2023-08-31T00:56:19.434Z,4.45
2023-08-31T00:58:55.762Z,4.30
2023-08-31T01:01:38.242Z,4.25
2023-08-31T01:04:22.544Z,4.00
2023-08-31T01:07:04.018Z,4.03
2023-08-31T01:09:42.853Z,4.20
2023-08-31T01:12:30.716Z,3.70
2023-08-31T01:15:09.001Z,4.10
2023-08-31T01:17:46.648Z,3.97
2023-08-31T01:20:38.422Z,4.70
2023-08-31T01:23:18.226Z,4.20
2023-08-31T01:25:53.423Z,4.10
2023-08-31T01:28:29.687Z,4.00
2023-08-31T01:31:06.534Z,3.75
2023-08-31T01:33:42.417Z,3.83
2023-08-31T01:36:22.549Z,4.25
2023-08-31T01:39:04.627Z,3.80
2023-08-31T01:41:42.554Z,3.85
2023-08-31T01:44:18.843Z,4.22
2023-08-31T01:46:54.777Z,3.50
2023-08-31T01:49:30.276Z,3.58
2023-08-31T01:52:03.793Z,3.75
2023-08-31T01:54:38.523Z,4.50
2023-08-31T01:57:12.790Z,3.58
2023-08-31T02:00:07.181Z,4.07
2023-08-31T02:02:47.470Z,3.88
2023-08-31T02:05:20.484Z,3.63
2023-08-31T02:07:53.359Z,3.63
2023-08-31T02:10:27.523Z,3.55
2023-08-31T02:13:01.785Z,3.33
2023-08-31T02:15:34.733Z,3.60
2023-08-31T02:18:09.496Z,3.90
2023-08-31T02:20:42.458Z,4.10
2023-08-31T02:23:15.396Z,4.53
2023-08-31T02:25:48.324Z,4.63
2023-08-31T02:31:01.339Z,5.65
2023-08-31T02:33:37.399Z,5.45
2023-08-31T02:36:10.346Z,5.95
2023-08-31T02:38:43.204Z,5.68
2023-08-31T02:41:16.133Z,6.55
2023-08-31T02:43:52.672Z,7.35
2023-08-31T02:46:25.762Z,7.28
2023-08-31T02:48:58.692Z,6.80
2023-08-31T02:51:31.530Z,8.63
2023-08-31T02:54:05.034Z,7.95
2023-08-31T02:59:12.227Z,8.55
2023-08-31T03:01:47.516Z,8.90
2023-08-31T03:04:20.717Z,9.60
2023-08-31T03:06:53.583Z,9.88
2023-08-31T03:09:26.498Z,10.55
2023-08-31T03:11:59.454Z,9.95
2023-08-31T03:14:33.779Z,10.43
2023-08-31T03:17:06.717Z,11.10
2023-08-31T03:19:39.685Z,11.45
2023-08-31T03:22:12.607Z,12.10
2023-08-31T03:24:45.642Z,11.80
2023-08-31T03:27:18.637Z,10.80
2023-08-31T03:29:53.062Z,11.45
2023-08-31T03:32:25.919Z,11.00
2023-08-31T03:34:58.850Z,10.73
2023-08-31T03:37:31.877Z,10.10
2023-08-31T03:40:07.782Z,9.95
2023-08-31T03:42:41.192Z,9.98
2023-08-31T03:45:15.445Z,9.90
2023-08-31T03:47:48.733Z,10.02
2023-08-31T03:50:21.674Z,10.10
2023-08-31T03:52:54.546Z,9.82
2023-08-31T03:55:27.497Z,9.68
2023-08-31T03:58:00.513Z,9.63
2023-08-31T04:00:34.843Z,10.25
2023-08-31T04:03:08.032Z,9.23
2023-08-31T04:05:41.078Z,10.48
2023-08-31T04:08:14.537Z,9.23
2023-08-31T04:13:20.930Z,9.67
2023-08-31T04:15:55.752Z,10.43
2023-08-31T04:18:28.666Z,9.98
2023-08-31T04:21:04.307Z,10.20
2023-08-31T04:23:37.304Z,10.52
2023-08-31T04:26:13.759Z,9.05
2023-08-31T04:28:46.808Z,10.15
2023-08-31T04:31:21.118Z,9.57
2023-08-31T04:33:55.349Z,8.65
2023-08-31T04:36:28.357Z,9.88
2023-08-31T04:39:01.190Z,9.52
2023-08-31T04:41:34.233Z,9.50
2023-08-31T04:44:07.262Z,9.38
2023-08-31T04:46:42.675Z,10.82
2023-08-31T04:49:15.554Z,10.82
2023-08-31T04:51:48.577Z,12.20
2023-08-31T04:54:21.438Z,11.40
2023-08-31T04:56:54.354Z,10.38
2023-08-31T04:59:27.279Z,10.07
2023-08-31T05:02:01.546Z,10.50
2023-08-31T05:04:34.462Z,10.43
2023-08-31T05:07:07.384Z,10.93
2023-08-31T05:09:40.431Z,11.50
2023-08-31T05:12:13.299Z,14.30
2023-08-31T05:14:46.217Z,27.95
2023-08-31T05:17:20.552Z,11.10
2023-08-31T05:19:53.495Z,9.68
2023-08-31T05:22:26.356Z,8.60
2023-08-31T05:24:59.214Z,22.67
2023-08-31T05:27:32.217Z,8.50
2023-08-31T05:30:06.227Z,8.30
2023-08-31T05:32:40.549Z,7.55
2023-08-31T05:35:13.440Z,7.63
2023-08-31T05:37:46.309Z,7.53
2023-08-31T05:40:19.534Z,8.20
2023-08-31T05:42:52.405Z,7.63
2023-08-31T05:45:25.360Z,7.80
2023-08-31T05:47:59.585Z,6.85
2023-08-31T05:50:32.973Z,6.32
2023-08-31T05:53:06.610Z,5.88
2023-08-31T05:55:39.531Z,6.63
2023-08-31T05:58:12.540Z,6.65
2023-08-31T06:00:45.535Z,5.72
2023-08-31T06:03:19.783Z,5.50
2023-08-31T06:05:52.829Z,5.50
2023-08-31T06:08:26.073Z,5.13
2023-08-31T06:10:59.807Z,5.22
2023-08-31T06:13:32.956Z,5.53
2023-08-31T06:16:06.049Z,5.32
2023-08-31T06:18:40.369Z,6.32
2023-08-31T06:21:13.339Z,5.90
2023-08-31T06:23:46.309Z,6.00
2023-08-31T06:26:19.271Z,15.75
2023-08-31T06:28:52.325Z,5.20
2023-08-31T06:31:25.261Z,5.18
2023-08-31T06:33:59.546Z,5.57
2023-08-31T06:36:32.609Z,5.22
2023-08-31T06:39:06.571Z,5.50
2023-08-31T06:41:39.418Z,5.25
2023-08-31T06:44:12.329Z,4.53
2023-08-31T06:46:45.213Z,4.93
2023-08-31T06:49:19.521Z,5.70
2023-08-31T06:51:52.393Z,4.40
2023-08-31T06:54:27.115Z,5.28
2023-08-31T06:56:59.974Z,5.22
2023-08-31T06:59:32.866Z,5.90
2023-08-31T07:02:06.182Z,4.90
2023-08-31T07:04:40.577Z,5.13
2023-08-31T07:07:15.115Z,4.70
2023-08-31T07:09:49.325Z,4.85
2023-08-31T07:12:22.437Z,4.75
2023-08-31T07:14:55.365Z,4.15
2023-08-31T07:17:31.506Z,4.40
2023-08-31T07:20:07.854Z,4.68
2023-08-31T07:22:41.773Z,5.97
2023-08-31T07:25:14.821Z,4.55
2023-08-31T07:27:50.660Z,4.80
2023-08-31T07:30:23.523Z,4.80
2023-08-31T07:32:56.540Z,4.50
2023-08-31T07:35:30.908Z,3.80
2023-08-31T07:38:06.118Z,4.10
2023-08-31T07:40:39.398Z,4.47
2023-08-31T07:45:45.900Z,3.42
2023-08-31T07:48:18.840Z,4.35
2023-08-31T07:50:53.119Z,3.72
2023-08-31T07:53:27.456Z,3.33
2023-08-31T07:56:01.674Z,3.78
2023-08-31T07:58:34.551Z,4.80
2023-08-31T08:01:07.623Z,4.00
2023-08-31T08:06:16.278Z,3.80
2023-08-31T08:08:49.222Z,3.70
2023-08-31T08:11:22.116Z,3.33
2023-08-31T08:13:55.063Z,3.20
2023-08-31T08:16:28.229Z,3.25
2023-08-31T08:21:35.450Z,3.13
2023-08-31T08:24:08.706Z,2.58
2023-08-31T08:26:41.671Z,2.35
2023-08-31T08:31:47.424Z,2.60
2023-08-31T08:34:25.593Z,2.28
2023-08-31T08:36:59.927Z,2.22
2023-08-31T08:39:33.014Z,2.08
2023-08-31T08:42:07.828Z,2.65
2023-08-31T08:44:41.462Z,2.17
2023-08-31T08:47:14.416Z,2.28
2023-08-31T08:49:48.669Z,2.05
2023-08-31T08:52:23.918Z,24.08
2023-08-31T08:54:59.279Z,2.30
2023-08-31T08:57:33.050Z,2.28
2023-08-31T09:00:07.628Z,2.10
2023-08-31T09:02:40.687Z,2.53
2023-08-31T09:08:06.546Z,2.00
2023-08-31T09:10:40.807Z,2.08
2023-08-31T09:13:16.574Z,2.33
2023-08-31T09:15:50.893Z,2.38
2023-08-31T09:18:27.126Z,2.45
2023-08-31T09:21:00.306Z,2.38
2023-08-31T09:23:34.771Z,2.30
2023-08-31T09:26:07.866Z,2.63
2023-08-31T09:28:43.215Z,2.28
2023-08-31T09:31:16.299Z,2.42
2023-08-31T09:33:53.273Z,2.60
2023-08-31T09:36:26.390Z,2.55
2023-08-31T09:39:01.254Z,2.80
2023-08-31T09:41:35.013Z,2.83
2023-08-31T09:44:18.338Z,3.85
2023-08-31T09:46:51.316Z,2.60
2023-08-31T09:51:57.182Z,2.58
2023-08-31T09:54:32.001Z,2.75
2023-08-31T09:57:05.718Z,3.25
2023-08-31T09:59:41.353Z,3.17
2023-08-31T10:02:16.813Z,3.58
2023-08-31T10:04:53.694Z,4.13
2023-08-31T10:07:26.795Z,3.10
2023-08-31T10:10:04.550Z,3.70
2023-08-31T10:12:37.932Z,3.30
2023-08-31T10:15:12.638Z,3.40
2023-08-31T10:17:46.200Z,3.30
2023-08-31T10:20:19.790Z,2.97
2023-08-31T10:22:52.641Z,3.08
2023-08-31T10:25:28.150Z,2.38
2023-08-31T10:28:01.058Z,2.67
2023-08-31T10:30:34.077Z,2.88
2023-08-31T10:33:24.650Z,2.70
2023-08-31T10:35:58.398Z,2.40
2023-08-31T10:38:32.571Z,2.70
2023-08-31T10:41:21.820Z,2.97
2023-08-31T10:43:58.734Z,2.58
2023-08-31T10:46:34.074Z,2.80
2023-08-31T10:49:16.535Z,2.50
2023-08-31T10:51:51.283Z,2.65
2023-08-31T10:54:26.117Z,2.33
2023-08-31T10:57:08.285Z,2.70
2023-08-31T10:59:49.084Z,2.50
2023-08-31T11:02:33.853Z,2.63
2023-08-31T11:05:14.508Z,3.13
2023-08-31T11:07:49.237Z,2.55
2023-08-31T11:10:24.822Z,2.78
2023-08-31T11:12:59.370Z,2.75
2023-08-31T11:15:33.140Z,3.00
2023-08-31T11:18:07.533Z,2.92
2023-08-31T11:20:40.511Z,2.67
2023-08-31T11:25:46.680Z,2.92
2023-08-31T11:28:21.296Z,2.50
2023-08-31T11:30:54.212Z,2.40
2023-08-31T11:36:07.844Z,2.50
2023-08-31T11:38:41.428Z,2.75
2023-08-31T11:41:14.575Z,2.30
2023-08-31T11:43:49.660Z,2.40
2023-08-31T11:46:22.816Z,5.70
2023-08-31T11:48:56.077Z,2.78
2023-08-31T11:51:30.652Z,2.38
2023-08-31T11:54:04.302Z,1.80
2023-08-31T11:56:44.990Z,2.00
2023-08-31T11:59:20.816Z,2.17
2023-08-31T12:01:53.854Z,2.20
2023-08-31T12:04:27.628Z,2.10
2023-08-31T12:07:05.876Z,2.35
2023-08-31T12:09:39.353Z,2.53
2023-08-31T12:12:12.496Z,3.22
2023-08-31T12:14:46.791Z,2.30
2023-08-31T12:17:21.404Z,2.17
2023-08-31T12:19:54.349Z,2.25
2023-08-31T12:22:27.329Z,2.20
2023-08-31T12:25:00.322Z,2.00
2023-08-31T12:27:33.299Z,2.50
2023-08-31T12:32:41.504Z,2.75
2023-08-31T12:35:15.519Z,2.75
2023-08-31T12:37:48.473Z,2.70
2023-08-31T12:40:21.543Z,3.42
2023-08-31T12:45:28.483Z,3.85
2023-08-31T12:48:01.476Z,3.30
2023-08-31T12:50:34.626Z,3.55
2023-08-31T12:53:07.512Z,3.20
2023-08-31T12:55:40.463Z,3.50
2023-08-31T12:58:13.349Z,3.13
2023-08-31T13:00:50.109Z,4.45
2023-08-31T13:03:23.076Z,4.60
2023-08-31T13:05:56.214Z,3.75
2023-08-31T13:08:29.921Z,3.22
2023-08-31T13:11:04.931Z,4.60
2023-08-31T13:13:37.799Z,3.38
2023-08-31T13:16:12.382Z,4.18
2023-08-31T13:18:45.351Z,3.80
2023-08-31T13:21:18.345Z,4.68
2023-08-31T13:23:51.284Z,4.13
2023-08-31T13:26:24.149Z,4.15
2023-08-31T13:28:57.059Z,4.97
2023-08-31T13:31:31.318Z,5.95
2023-08-31T13:34:04.776Z,5.60
2023-08-31T13:39:10.931Z,6.03
2023-08-31T13:41:43.977Z,6.68
2023-08-31T13:44:16.924Z,7.10
2023-08-31T13:46:51.529Z,7.03
2023-08-31T13:49:24.485Z,7.50
2023-08-31T13:51:57.370Z,7.45
2023-08-31T13:54:30.257Z,8.00
2023-08-31T13:57:03.884Z,8.13
2023-08-31T13:59:36.811Z,8.10
2023-08-31T14:02:11.061Z,7.75
2023-08-31T14:04:44.075Z,8.60
2023-08-31T14:07:17.489Z,8.15
2023-08-31T14:12:25.783Z,7.82
2023-08-31T14:15:00.150Z,8.10
2023-08-31T14:17:34.473Z,8.02
2023-08-31T14:20:10.662Z,7.30
2023-08-31T14:22:47.915Z,7.22
2023-08-31T14:25:21.314Z,7.30
2023-08-31T14:30:27.610Z,6.03
2023-08-31T14:33:02.258Z,5.90
2023-08-31T14:35:38.777Z,7.57
2023-08-31T14:38:13.684Z,6.30
2023-08-31T14:40:47.141Z,4.88
2023-08-31T14:43:20.361Z,4.55
2023-08-31T14:45:53.610Z,14.65
2023-08-31T14:51:01.729Z,5.22
2023-08-31T14:53:35.175Z,4.10
2023-08-31T14:56:09.264Z,5.75
2023-08-31T14:58:42.646Z,4.18
2023-08-31T15:01:15.917Z,3.80
2023-08-31T15:06:23.696Z,3.85
2023-08-31T15:11:29.950Z,4.00
2023-08-31T15:16:39.229Z,4.30
2023-08-31T15:19:13.891Z,3.78
2023-08-31T15:21:47.095Z,3.63
2023-08-31T15:26:53.654Z,2.60
2023-08-31T15:29:28.945Z,2.92
2023-08-31T15:32:02.193Z,2.85
2023-08-31T15:34:37.150Z,2.85
2023-08-31T15:37:10.398Z,2.75
2023-08-31T15:39:43.646Z,2.42
2023-08-31T15:42:16.863Z,3.00
2023-08-31T15:44:50.096Z,3.05
2023-08-31T15:47:23.476Z,3.25
2023-08-31T15:52:32.518Z,2.53
2023-08-31T15:55:06.701Z,2.50
2023-08-31T15:57:39.950Z,2.40
2023-08-31T16:00:13.703Z,2.53
2023-08-31T16:02:47.020Z,3.50
2023-08-31T16:07:55.523Z,2.53
2023-08-31T16:10:28.865Z,2.75
2023-08-31T16:13:02.095Z,2.53
2023-08-31T16:15:35.398Z,3.10
2023-08-31T16:18:08.732Z,4.50
2023-08-31T16:23:16.772Z,2.90
2023-08-31T16:25:50.408Z,2.50
2023-08-31T16:28:23.938Z,2.75
2023-08-31T16:30:58.816Z,2.78
2023-08-31T16:33:32.180Z,2.40
2023-08-31T16:36:07.274Z,2.35
2023-08-31T16:38:40.531Z,2.83
2023-08-31T16:41:13.811Z,2.42
2023-08-31T16:43:47.018Z,2.30
2023-08-31T16:46:20.349Z,2.20
2023-08-31T16:48:53.690Z,3.13
2023-08-31T16:51:28.435Z,2.60
2023-08-31T16:54:01.704Z,2.70
2023-08-31T16:56:35.046Z,3.25
2023-08-31T16:59:08.397Z,8.20
2023-08-31T17:01:41.729Z,2.55
2023-08-31T17:04:15.006Z,3.08
2023-08-31T17:06:51.235Z,2.30
2023-08-31T17:09:24.463Z,2.60
2023-08-31T17:14:34.095Z,2.17
2023-08-31T17:17:07.361Z,2.75
2023-08-31T17:19:40.550Z,2.90
2023-08-31T17:22:15.111Z,2.63
2023-08-31T17:24:48.448Z,2.45
2023-08-31T17:27:22.137Z,2.60
2023-08-31T17:29:55.386Z,3.20
2023-08-31T17:32:28.702Z,3.00
2023-08-31T17:35:04.345Z,2.92
2023-08-31T17:37:39.868Z,3.53
2023-08-31T17:40:13.348Z,2.50
2023-08-31T17:45:21.078Z,7.43
2023-08-31T17:47:55.899Z,2.85
2023-08-31T17:53:03.695Z,3.60
2023-08-31T17:55:36.985Z,2.67
2023-08-31T18:00:44.498Z,3.60
2023-08-31T18:03:18.167Z,2.83
2023-08-31T18:05:52.568Z,3.42
2023-08-31T18:08:28.975Z,2.83
2023-08-31T18:11:02.273Z,3.00
2023-08-31T18:13:35.704Z,3.38
2023-08-31T18:16:09.022Z,3.30
2023-08-31T18:18:42.360Z,4.50
2023-08-31T18:21:15.633Z,4.75
2023-08-31T18:23:50.237Z,13.18
2023-08-31T18:26:23.857Z,8.23
2023-08-31T18:31:30.363Z,3.90
2023-08-31T18:34:04.617Z,4.25
2023-08-31T18:36:39.916Z,3.90
2023-08-31T18:39:14.618Z,4.43
2023-08-31T18:41:47.890Z,3.97
2023-08-31T18:44:22.081Z,5.05
2023-08-31T18:46:55.299Z,4.93
2023-08-31T18:49:28.663Z,4.68
2023-08-31T18:52:01.964Z,4.35
2023-08-31T18:54:36.646Z,4.68
2023-08-31T18:57:11.454Z,3.90
2023-08-31T18:59:44.693Z,4.35
2023-08-31T19:02:17.980Z,4.90
2023-08-31T19:04:53.270Z,29.58
2023-08-31T19:07:26.508Z,6.35
2023-08-31T19:10:08.470Z,7.82
2023-08-31T19:12:44.582Z,16.83
2023-08-31T19:15:18.976Z,6.32
2023-08-31T19:17:54.506Z,5.45
2023-08-31T19:20:27.730Z,5.72
2023-08-31T19:23:01.394Z,7.00
2023-08-31T19:28:09.559Z,6.95
2023-08-31T19:30:42.789Z,6.80
2023-08-31T19:33:17.417Z,6.82
2023-08-31T19:38:30.596Z,6.05
2023-08-31T19:41:05.597Z,6.15
2023-08-31T19:46:38.340Z,16.08
2023-08-31T19:49:15.953Z,15.50
2023-08-31T19:51:49.658Z,7.00
2023-08-31T19:54:25.573Z,6.05
2023-08-31T19:57:05.823Z,6.18
2023-08-31T19:59:39.324Z,9.32
2023-08-31T20:02:18.611Z,7.97
2023-08-31T20:04:51.840Z,8.38
2023-08-31T20:10:00.458Z,7.03
2023-08-31T20:12:37.966Z,6.30
2023-08-31T20:15:11.788Z,6.07
2023-08-31T20:17:45.084Z,5.90
2023-08-31T20:20:20.311Z,5.60
2023-08-31T20:22:53.619Z,5.75
2023-08-31T20:25:26.875Z,6.32
2023-08-31T20:28:01.516Z,6.53
2023-08-31T20:30:34.832Z,6.65
2023-08-31T20:33:10.261Z,6.38
2023-08-31T20:35:43.929Z,6.38
2023-08-31T20:40:50.703Z,6.35
2023-08-31T20:43:25.408Z,6.45
2023-08-31T20:46:07.299Z,6.78
2023-08-31T20:48:40.989Z,7.15
2023-08-31T20:51:17.781Z,6.38
2023-08-31T20:53:50.941Z,6.45
2023-08-31T20:56:25.573Z,6.03
2023-08-31T20:59:00.187Z,5.80
2023-08-31T21:01:34.186Z,5.75
2023-08-31T21:04:07.982Z,5.25
2023-08-31T21:06:45.045Z,5.95
2023-08-31T21:09:18.450Z,5.53
2023-08-31T21:11:51.717Z,6.60
2023-08-31T21:14:27.178Z,5.78
2023-08-31T21:17:00.662Z,7.05
2023-08-31T21:22:09.327Z,6.32
2023-08-31T21:24:43.614Z,6.13
2023-08-31T21:27:16.890Z,6.07
2023-08-31T21:29:51.510Z,5.75
2023-08-31T21:32:24.776Z,6.65
2023-08-31T21:34:58.080Z,5.60
2023-08-31T21:37:31.261Z,5.38
2023-08-31T21:40:04.852Z,5.93
2023-08-31T21:45:12.810Z,5.82
2023-08-31T21:47:46.223Z,5.88
2023-08-31T21:50:19.411Z,5.10
2023-08-31T21:52:52.638Z,5.50
2023-08-31T21:55:26.941Z,6.07
2023-08-31T21:58:00.142Z,5.28
2023-08-31T22:00:34.805Z,6.75
2023-08-31T22:03:09.666Z,5.38
2023-08-31T22:05:43.928Z,5.57
2023-08-31T22:08:17.438Z,5.15
2023-08-31T22:10:52.072Z,4.47
2023-08-31T22:13:25.378Z,4.60
2023-08-31T22:16:02.544Z,3.92
2023-08-31T22:18:40.013Z,4.90
2023-08-31T22:21:12.315Z,4.47
2023-08-31T22:23:45.768Z,4.82
2023-08-31T22:26:19.173Z,4.88
2023-08-31T22:28:52.652Z,4.68
2023-08-31T22:31:27.644Z,5.00
2023-08-31T22:34:03.778Z,5.13
2023-08-31T22:36:37.050Z,4.88
2023-08-31T22:39:10.367Z,4.47
2023-08-31T22:41:45.039Z,4.43
2023-08-31T22:44:18.491Z,4.78
2023-08-31T22:46:53.087Z,4.80
2023-08-31T22:49:26.624Z,5.05
2023-08-31T22:51:59.851Z,5.05
2023-08-31T22:54:33.431Z,5.07
2023-08-31T22:57:07.883Z,4.43
2023-08-31T22:59:42.043Z,5.13
2023-08-31T23:02:17.309Z,4.93
2023-08-31T23:04:50.973Z,4.95
2023-08-31T23:09:57.116Z,4.88
2023-08-31T23:12:30.540Z,5.45
2023-08-31T23:15:03.787Z,5.43
2023-08-31T23:17:38.473Z,4.30
2023-08-31T23:20:12.635Z,4.50
2023-08-31T23:22:47.868Z,4.45
2023-08-31T23:25:21.287Z,5.28
2023-08-31T23:27:54.505Z,5.20
2023-08-31T23:30:28.275Z,4.57
2023-08-31T23:33:02.921Z,4.95
2023-08-31T23:35:36.454Z,5.40
2023-08-31T23:38:09.716Z,5.03
2023-08-31T23:40:44.694Z,4.68
2023-08-31T23:43:17.943Z,5.55
2023-08-31T23:45:51.299Z,5.15
2023-08-31T23:48:26.092Z,4.47
2023-08-31T23:50:59.365Z,4.53
2023-08-31T23:53:34.834Z,3.92
2023-08-31T23:56:08.560Z,4.55
